ASX306 LESO-LFCH
Flight info
| Callsign | ASX306 |
|---|---|
| Flight time | 0h 35m |
| Altitude | 4500 |
| Route | CHAPELLENORD BIDARDPLAGEDUCENTRE PHAREDEBIARRITZ EMBOICHUREDELADOUR CAPBRETON SUDPLAGEDUPETITNICE ARCACHONLATESTEDEBUCH |
| Aircraft | BE58/L-SBDFGY/C |
Departure
| Time | 2026-05-01 08:12 |
|---|---|
| Airport | San Sebastián Airport (LESO) |
Arrival
| Time | 2026-05-01 08:47 |
|---|---|
| Airport | Aérodrome d'Arcachon-La Teste-de-Buch (LFCH) |
| Time | Latitude | Longitude | Altitude | Speed | Heading |
|---|---|---|---|---|---|
| 2026-05-01 07:55 | 43.35510 | -1.79391 | 14 ft | 0 kts | 127° |
| 2026-05-01 08:06 | 43.35510 | -1.79390 | 14 ft | 0 kts | 127° |
| 2026-05-01 08:08 | 43.35508 | -1.79388 | 14 ft | 3 kts | 127° |
| 2026-05-01 08:08 | 43.35593 | -1.79242 | 14 ft | 14 kts | 37° |
| 2026-05-01 08:09 | 43.35715 | -1.79106 | 14 ft | 7 kts | 40° |
| 2026-05-01 08:09 | 43.35719 | -1.79100 | 14 ft | 0 kts | 45° |
| 2026-05-01 08:09 | 43.35728 | -1.79054 | 14 ft | 9 kts | 112° |
| 2026-05-01 08:10 | 43.35878 | -1.78811 | 15 ft | 23 kts | 38° |
| 2026-05-01 08:10 | 43.36103 | -1.78587 | 16 ft | 6 kts | 50° |
| 2026-05-01 08:11 | 43.35831 | -1.78864 | 15 ft | 80 kts | 218° |
| 2026-05-01 08:11 | 43.34718 | -1.80110 | 446 ft | 115 kts | 219° |
| 2026-05-01 08:12 | 43.33349 | -1.81596 | 906 ft | 132 kts | 217° |
| 2026-05-01 08:12 | 43.32542 | -1.82249 | 1166 ft | 136 kts | 192° |
| 2026-05-01 08:12 | 43.31063 | -1.81143 | 1757 ft | 132 kts | 102° |
| 2026-05-01 08:13 | 43.31195 | -1.79911 | 1975 ft | 138 kts | 63° |
| 2026-05-01 08:13 | 43.31834 | -1.78926 | 2285 ft | 138 kts | 40° |
| 2026-05-01 08:13 | 43.33494 | -1.77480 | 2774 ft | 146 kts | 27° |
| 2026-05-01 08:14 | 43.34424 | -1.76925 | 2945 ft | 149 kts | 26° |
| 2026-05-01 08:14 | 43.35401 | -1.76345 | 3065 ft | 151 kts | 28° |
| 2026-05-01 08:14 | 43.36288 | -1.75633 | 3243 ft | 147 kts | 37° |
| 2026-05-01 08:14 | 43.37120 | -1.74788 | 3377 ft | 148 kts | 41° |
| 2026-05-01 08:15 | 43.37902 | -1.73865 | 3550 ft | 145 kts | 46° |
| 2026-05-01 08:15 | 43.39111 | -1.71647 | 3801 ft | 145 kts | 61° |
| 2026-05-01 08:15 | 43.39632 | -1.70464 | 3944 ft | 145 kts | 61° |
| 2026-05-01 08:16 | 43.40116 | -1.69222 | 4025 ft | 148 kts | 69° |
| 2026-05-01 08:16 | 43.40438 | -1.67901 | 4178 ft | 144 kts | 76° |
| 2026-05-01 08:16 | 43.40716 | -1.66581 | 4249 ft | 145 kts | 75° |
| 2026-05-01 08:16 | 43.41088 | -1.65256 | 4295 ft | 149 kts | 66° |
| 2026-05-01 08:17 | 43.41574 | -1.64015 | 4410 ft | 147 kts | 60° |
| 2026-05-01 08:17 | 43.42185 | -1.62869 | 4440 ft | 151 kts | 52° |
| 2026-05-01 08:17 | 43.42925 | -1.61836 | 4494 ft | 153 kts | 44° |
| 2026-05-01 08:17 | 43.43738 | -1.60847 | 4516 ft | 157 kts | 43° |
| 2026-05-01 08:18 | 43.44581 | -1.59866 | 4518 ft | 162 kts | 41° |
| 2026-05-01 08:18 | 43.46350 | -1.57879 | 4517 ft | 164 kts | 41° |
| 2026-05-01 08:19 | 43.48211 | -1.55983 | 4516 ft | 166 kts | 37° |
| 2026-05-01 08:19 | 43.49162 | -1.55063 | 4516 ft | 166 kts | 37° |
| 2026-05-01 08:19 | 43.50141 | -1.54113 | 4516 ft | 166 kts | 37° |
| 2026-05-01 08:19 | 43.51090 | -1.53207 | 4516 ft | 166 kts | 35° |
| 2026-05-01 08:20 | 43.52072 | -1.52372 | 4516 ft | 166 kts | 33° |
| 2026-05-01 08:20 | 43.53074 | -1.51537 | 4516 ft | 167 kts | 33° |
| 2026-05-01 08:20 | 43.54062 | -1.50714 | 4517 ft | 167 kts | 33° |
| 2026-05-01 08:20 | 43.55076 | -1.49874 | 4515 ft | 168 kts | 32° |
| 2026-05-01 08:21 | 43.56092 | -1.49085 | 4512 ft | 168 kts | 31° |
| 2026-05-01 08:21 | 43.57119 | -1.48292 | 4511 ft | 168 kts | 31° |
| 2026-05-01 08:21 | 43.58138 | -1.47502 | 4516 ft | 168 kts | 31° |
| 2026-05-01 08:21 | 43.59161 | -1.46713 | 4519 ft | 168 kts | 31° |
| 2026-05-01 08:22 | 43.60182 | -1.45922 | 4517 ft | 168 kts | 31° |
| 2026-05-01 08:22 | 43.61202 | -1.45129 | 4515 ft | 168 kts | 31° |
| 2026-05-01 08:22 | 43.62230 | -1.44331 | 4513 ft | 167 kts | 30° |
| 2026-05-01 08:22 | 43.63314 | -1.43681 | 4512 ft | 168 kts | 23° |
| 2026-05-01 08:23 | 43.64418 | -1.43130 | 4511 ft | 168 kts | 21° |
| 2026-05-01 08:23 | 43.65526 | -1.42620 | 4514 ft | 168 kts | 18° |
| 2026-05-01 08:23 | 43.66664 | -1.42206 | 4512 ft | 168 kts | 15° |
| 2026-05-01 08:23 | 43.67807 | -1.41831 | 4509 ft | 168 kts | 15° |
| 2026-05-01 08:24 | 43.68945 | -1.41456 | 4510 ft | 168 kts | 15° |
| 2026-05-01 08:24 | 43.70081 | -1.41080 | 4503 ft | 168 kts | 15° |
| 2026-05-01 08:24 | 43.71216 | -1.40700 | 4504 ft | 168 kts | 15° |
| 2026-05-01 08:24 | 43.72354 | -1.40316 | 4512 ft | 168 kts | 15° |
| 2026-05-01 08:25 | 43.73498 | -1.39933 | 4508 ft | 168 kts | 15° |
| 2026-05-01 08:25 | 43.74630 | -1.39553 | 4505 ft | 168 kts | 15° |
| 2026-05-01 08:25 | 43.75787 | -1.39164 | 4511 ft | 167 kts | 15° |
| 2026-05-01 08:25 | 43.76947 | -1.38778 | 4510 ft | 167 kts | 15° |
| 2026-05-01 08:26 | 43.78084 | -1.38402 | 4509 ft | 167 kts | 15° |
| 2026-05-01 08:26 | 43.79209 | -1.38038 | 4508 ft | 167 kts | 13° |
| 2026-05-01 08:26 | 43.80362 | -1.37758 | 4510 ft | 167 kts | 11° |
| 2026-05-01 08:26 | 43.81511 | -1.37494 | 4515 ft | 167 kts | 11° |
| 2026-05-01 08:27 | 43.82661 | -1.37229 | 4513 ft | 167 kts | 11° |
| 2026-05-01 08:27 | 43.83802 | -1.36962 | 4509 ft | 168 kts | 11° |
| 2026-05-01 08:27 | 43.84951 | -1.36692 | 4510 ft | 168 kts | 11° |
| 2026-05-01 08:27 | 43.86105 | -1.36424 | 4518 ft | 168 kts | 11° |
| 2026-05-01 08:28 | 43.87265 | -1.36156 | 4506 ft | 168 kts | 11° |
| 2026-05-01 08:28 | 43.88421 | -1.35886 | 4504 ft | 168 kts | 11° |
| 2026-05-01 08:28 | 43.89583 | -1.35617 | 4505 ft | 168 kts | 11° |
| 2026-05-01 08:28 | 43.90728 | -1.35415 | 4503 ft | 168 kts | 4° |
| 2026-05-01 08:29 | 43.91898 | -1.35363 | 4503 ft | 168 kts | 3° |
| 2026-05-01 08:29 | 43.93080 | -1.35326 | 4503 ft | 168 kts | 3° |
| 2026-05-01 08:29 | 43.94250 | -1.35289 | 4505 ft | 168 kts | 3° |
| 2026-05-01 08:29 | 43.95414 | -1.35252 | 4507 ft | 168 kts | 3° |
| 2026-05-01 08:30 | 43.96589 | -1.35210 | 4503 ft | 168 kts | 3° |
| 2026-05-01 08:30 | 43.97762 | -1.35169 | 4502 ft | 168 kts | 3° |
| 2026-05-01 08:30 | 43.98917 | -1.35086 | 4501 ft | 168 kts | 5° |
| 2026-05-01 08:30 | 44.00103 | -1.34987 | 4454 ft | 171 kts | 6° |
| 2026-05-01 08:31 | 44.01299 | -1.34887 | 4397 ft | 171 kts | 6° |
| 2026-05-01 08:31 | 44.02510 | -1.34782 | 4337 ft | 171 kts | 7° |
| 2026-05-01 08:31 | 44.03755 | -1.34629 | 4276 ft | 171 kts | 8° |
| 2026-05-01 08:31 | 44.05075 | -1.34425 | 4212 ft | 171 kts | 9° |
| 2026-05-01 08:32 | 44.06345 | -1.34205 | 4152 ft | 171 kts | 9° |
| 2026-05-01 08:32 | 44.07642 | -1.33983 | 4092 ft | 171 kts | 9° |
| 2026-05-01 08:32 | 44.08944 | -1.33724 | 4005 ft | 171 kts | 12° |
| 2026-05-01 08:32 | 44.10227 | -1.33445 | 3889 ft | 170 kts | 12° |
| 2026-05-01 08:33 | 44.11501 | -1.33170 | 3773 ft | 170 kts | 12° |
| 2026-05-01 08:33 | 44.12674 | -1.32920 | 3665 ft | 169 kts | 12° |
| 2026-05-01 08:33 | 44.13873 | -1.32670 | 3556 ft | 169 kts | 12° |
| 2026-05-01 08:33 | 44.15044 | -1.32429 | 3448 ft | 169 kts | 12° |
| 2026-05-01 08:34 | 44.16202 | -1.32196 | 3349 ft | 167 kts | 12° |
| 2026-05-01 08:34 | 44.17354 | -1.31973 | 3248 ft | 165 kts | 12° |
| 2026-05-01 08:34 | 44.18473 | -1.31763 | 3150 ft | 164 kts | 12° |
| 2026-05-01 08:34 | 44.19603 | -1.31548 | 3051 ft | 162 kts | 12° |
| 2026-05-01 08:35 | 44.20726 | -1.31330 | 2951 ft | 162 kts | 12° |
| 2026-05-01 08:35 | 44.21843 | -1.31111 | 2851 ft | 161 kts | 12° |
| 2026-05-01 08:35 | 44.22940 | -1.30892 | 2750 ft | 161 kts | 12° |
| 2026-05-01 08:35 | 44.24068 | -1.30671 | 2651 ft | 160 kts | 12° |
| 2026-05-01 08:36 | 44.25206 | -1.30448 | 2549 ft | 161 kts | 12° |
| 2026-05-01 08:36 | 44.26315 | -1.30230 | 2450 ft | 160 kts | 12° |
| 2026-05-01 08:36 | 44.27400 | -1.29970 | 2352 ft | 160 kts | 14° |
| 2026-05-01 08:36 | 44.28502 | -1.29698 | 2251 ft | 160 kts | 13° |
| 2026-05-01 08:37 | 44.29601 | -1.29431 | 2152 ft | 160 kts | 14° |
| 2026-05-01 08:37 | 44.30702 | -1.29165 | 2051 ft | 160 kts | 14° |
| 2026-05-01 08:37 | 44.31855 | -1.28886 | 1946 ft | 160 kts | 14° |
| 2026-05-01 08:37 | 44.32985 | -1.28611 | 1841 ft | 161 kts | 13° |
| 2026-05-01 08:38 | 44.34081 | -1.28341 | 1742 ft | 160 kts | 13° |
| 2026-05-01 08:38 | 44.35179 | -1.28068 | 1639 ft | 160 kts | 14° |
| 2026-05-01 08:38 | 44.36265 | -1.27792 | 1537 ft | 160 kts | 14° |
| 2026-05-01 08:38 | 44.37365 | -1.27507 | 1433 ft | 159 kts | 14° |
| 2026-05-01 08:39 | 44.38457 | -1.27221 | 1331 ft | 159 kts | 14° |
| 2026-05-01 08:39 | 44.39535 | -1.26935 | 1233 ft | 159 kts | 13° |
| 2026-05-01 08:39 | 44.40630 | -1.26642 | 1135 ft | 158 kts | 13° |
| 2026-05-01 08:39 | 44.41679 | -1.26340 | 1113 ft | 154 kts | 15° |
| 2026-05-01 08:40 | 44.43756 | -1.25623 | 1080 ft | 149 kts | 17° |
| 2026-05-01 08:40 | 44.44782 | -1.25290 | 1061 ft | 151 kts | 14° |
| 2026-05-01 08:40 | 44.45809 | -1.25075 | 1100 ft | 148 kts | 9° |
| 2026-05-01 08:41 | 44.46831 | -1.24966 | 1071 ft | 150 kts | 6° |
| 2026-05-01 08:41 | 44.47881 | -1.24928 | 1096 ft | 147 kts | 5° |
| 2026-05-01 08:41 | 44.48898 | -1.24882 | 1126 ft | 145 kts | 6° |
| 2026-05-01 08:41 | 44.49916 | -1.24835 | 1086 ft | 148 kts | 4° |
| 2026-05-01 08:42 | 44.50940 | -1.24839 | 1105 ft | 144 kts | 2° |
| 2026-05-01 08:42 | 44.51941 | -1.24846 | 1050 ft | 143 kts | 5° |
| 2026-05-01 08:42 | 44.52921 | -1.24721 | 1034 ft | 140 kts | 11° |
| 2026-05-01 08:42 | 44.53905 | -1.24487 | 952 ft | 142 kts | 14° |
| 2026-05-01 08:43 | 44.54849 | -1.24202 | 976 ft | 136 kts | 18° |
| 2026-05-01 08:43 | 44.55694 | -1.23706 | 998 ft | 127 kts | 38° |
| 2026-05-01 08:43 | 44.56222 | -1.22765 | 951 ft | 125 kts | 70° |
| 2026-05-01 08:43 | 44.56480 | -1.21584 | 885 ft | 126 kts | 72° |
| 2026-05-01 08:44 | 44.56828 | -1.20472 | 868 ft | 125 kts | 61° |
| 2026-05-01 08:44 | 44.57318 | -1.19467 | 787 ft | 120 kts | 56° |
| 2026-05-01 08:44 | 44.57787 | -1.18570 | 724 ft | 106 kts | 58° |
| 2026-05-01 08:44 | 44.58121 | -1.17753 | 639 ft | 89 kts | 66° |
| 2026-05-01 08:45 | 44.58334 | -1.16954 | 490 ft | 85 kts | 72° |
| 2026-05-01 08:45 | 44.58524 | -1.16167 | 414 ft | 84 kts | 73° |
| 2026-05-01 08:45 | 44.58686 | -1.15406 | 387 ft | 79 kts | 75° |
| 2026-05-01 08:45 | 44.58850 | -1.14659 | 307 ft | 81 kts | 72° |
| 2026-05-01 08:46 | 44.59028 | -1.13897 | 243 ft | 80 kts | 71° |
| 2026-05-01 08:46 | 44.59191 | -1.13169 | 180 ft | 78 kts | 75° |
| 2026-05-01 08:46 | 44.59350 | -1.12443 | 107 ft | 77 kts | 76° |
| 2026-05-01 08:46 | 44.59513 | -1.11728 | 55 ft | 72 kts | 74° |
| 2026-05-01 08:47 | 44.59582 | -1.11390 | 54 ft | 10 kts | 81° |
| 2026-05-01 08:47 | 44.59591 | -1.11417 | 54 ft | 10 kts | 274° |
| 2026-05-01 08:47 | 44.59644 | -1.11462 | 54 ft | 4 kts | 342° |
| 2026-05-01 08:47 | 44.59689 | -1.11484 | 54 ft | 0 kts | 341° |
| 2026-05-01 08:48 | 44.59693 | -1.11486 | 54 ft | 3 kts | 341° |
| 2026-05-01 08:48 | 44.59731 | -1.11493 | 54 ft | 7 kts | 314° |
| 2026-05-01 08:48 | 44.59755 | -1.11582 | 54 ft | 3 kts | 292° |
| 2026-05-01 08:48 | 44.59766 | -1.11590 | 54 ft | 0 kts | 23° |